sensor_id;sensor_type;location;lat;lon;timestamp;pressure;altitude;pressure_sealevel;temperature;humidity
11987;BME280;6053;51.382;6.768;2023-05-19T00:01:03;102193.28;;;15.81;57.99
11987;BME280;6053;51.382;6.768;2023-05-19T00:03:33;102200.63;;;15.31;57.09
11987;BME280;6053;51.382;6.768;2023-05-19T00:06:07;102197.44;;;15.71;58.41
11987;BME280;6053;51.382;6.768;2023-05-19T00:11:10;102200.66;;;16.23;56.62
11987;BME280;6053;51.382;6.768;2023-05-19T00:13:38;102195.56;;;16.20;55.80
11987;BME280;6053;51.382;6.768;2023-05-19T00:16:08;102195.75;;;15.70;57.19
11987;BME280;6053;51.382;6.768;2023-05-19T00:18:37;102197.34;;;15.60;57.69
11987;BME280;6053;51.382;6.768;2023-05-19T00:21:08;102193.03;;;16.00;57.11
11987;BME280;6053;51.382;6.768;2023-05-19T00:23:36;102191.69;;;16.21;56.82
11987;BME280;6053;51.382;6.768;2023-05-19T00:26:05;102193.19;;;16.36;56.34
11987;BME280;6053;51.382;6.768;2023-05-19T00:28:34;102198.53;;;15.89;57.23
11987;BME280;6053;51.382;6.768;2023-05-19T00:31:03;102194.75;;;14.96;60.43
11987;BME280;6053;51.382;6.768;2023-05-19T00:33:32;102198.31;;;14.72;59.08
11987;BME280;6053;51.382;6.768;2023-05-19T00:36:01;102193.22;;;13.92;62.64
11987;BME280;6053;51.382;6.768;2023-05-19T00:38:32;102189.16;;;13.81;64.40
11987;BME280;6053;51.382;6.768;2023-05-19T00:41:03;102194.16;;;13.59;62.68
11987;BME280;6053;51.382;6.768;2023-05-19T00:43:32;102192.91;;;14.83;62.47
11987;BME280;6053;51.382;6.768;2023-05-19T00:46:02;102200.44;;;15.01;59.92
11987;BME280;6053;51.382;6.768;2023-05-19T00:48:30;102194.50;;;14.98;61.28
11987;BME280;6053;51.382;6.768;2023-05-19T00:51:00;102190.50;;;14.62;59.45
11987;BME280;6053;51.382;6.768;2023-05-19T00:53:33;102191.22;;;14.82;61.07
11987;BME280;6053;51.382;6.768;2023-05-19T00:56:02;102187.09;;;14.60;63.20
11987;BME280;6053;51.382;6.768;2023-05-19T00:58:32;102183.69;;;14.58;59.59
11987;BME280;6053;51.382;6.768;2023-05-19T01:01:01;102188.03;;;14.41;62.42
11987;BME280;6053;51.382;6.768;2023-05-19T01:03:34;102188.53;;;14.31;64.50
11987;BME280;6053;51.382;6.768;2023-05-19T01:06:03;102188.63;;;14.56;60.95
11987;BME280;6053;51.382;6.768;2023-05-19T01:08:35;102186.31;;;14.53;63.13
11987;BME280;6053;51.382;6.768;2023-05-19T01:11:04;102187.47;;;15.20;61.29
11987;BME280;6053;51.382;6.768;2023-05-19T01:13:34;102181.16;;;15.31;60.58
11987;BME280;6053;51.382;6.768;2023-05-19T01:16:08;102181.94;;;15.39;60.32
11987;BME280;6053;51.382;6.768;2023-05-19T01:18:45;102180.03;;;15.57;59.65
11987;BME280;6053;51.382;6.768;2023-05-19T01:21:29;102189.34;;;15.70;59.33
11987;BME280;6053;51.382;6.768;2023-05-19T01:24:20;102184.56;;;15.77;59.00
11987;BME280;6053;51.382;6.768;2023-05-19T01:27:22;102184.09;;;15.80;58.97
11987;BME280;6053;51.382;6.768;2023-05-19T01:32:56;102171.13;;;15.05;61.60
11987;BME280;6053;51.382;6.768;2023-05-19T01:35:26;102180.53;;;14.09;64.77
11987;BME280;6053;51.382;6.768;2023-05-19T01:37:56;102174.25;;;14.91;62.59
11987;BME280;6053;51.382;6.768;2023-05-19T01:40:26;102179.03;;;14.52;64.03
11987;BME280;6053;51.382;6.768;2023-05-19T01:42:57;102179.63;;;13.64;65.30
11987;BME280;6053;51.382;6.768;2023-05-19T01:45:29;102184.16;;;14.10;66.16
11987;BME280;6053;51.382;6.768;2023-05-19T01:48:00;102189.47;;;14.56;63.29
11987;BME280;6053;51.382;6.768;2023-05-19T01:50:30;102187.06;;;14.92;62.63
11987;BME280;6053;51.382;6.768;2023-05-19T01:52:59;102182.84;;;14.57;63.93
11987;BME280;6053;51.382;6.768;2023-05-19T01:55:28;102182.75;;;14.71;60.86
11987;BME280;6053;51.382;6.768;2023-05-19T01:58:05;102185.91;;;14.43;63.92
11987;BME280;6053;51.382;6.768;2023-05-19T02:00:50;102183.19;;;14.68;63.72
11987;BME280;6053;51.382;6.768;2023-05-19T02:03:36;102185.25;;;13.31;66.07
11987;BME280;6053;51.382;6.768;2023-05-19T02:06:19;102189.91;;;13.50;65.69
11987;BME280;6053;51.382;6.768;2023-05-19T02:08:56;102185.44;;;13.16;68.31
11987;BME280;6053;51.382;6.768;2023-05-19T02:11:34;102187.84;;;13.97;67.14
11987;BME280;6053;51.382;6.768;2023-05-19T02:14:08;102183.72;;;14.45;64.24
11987;BME280;6053;51.382;6.768;2023-05-19T02:16:45;102185.81;;;14.63;63.19
11987;BME280;6053;51.382;6.768;2023-05-19T02:19:22;102185.81;;;14.63;63.73
11987;BME280;6053;51.382;6.768;2023-05-19T02:21:52;102190.81;;;15.04;62.25
11987;BME280;6053;51.382;6.768;2023-05-19T02:24:20;102178.03;;;15.21;61.40
11987;BME280;6053;51.382;6.768;2023-05-19T02:26:49;102185.81;;;14.63;59.52
11987;BME280;6053;51.382;6.768;2023-05-19T02:29:18;102190.34;;;14.12;63.85
11987;BME280;6053;51.382;6.768;2023-05-19T02:31:48;102186.31;;;13.10;66.46
11987;BME280;6053;51.382;6.768;2023-05-19T02:34:17;102186.34;;;13.95;66.94
11987;BME280;6053;51.382;6.768;2023-05-19T02:36:46;102173.47;;;14.52;64.35
11987;BME280;6053;51.382;6.768;2023-05-19T02:39:16;102169.19;;;14.81;62.99
11987;BME280;6053;51.382;6.768;2023-05-19T02:41:44;102166.66;;;15.04;61.73
11987;BME280;6053;51.382;6.768;2023-05-19T02:44:13;102170.50;;;14.78;61.39
11987;BME280;6053;51.382;6.768;2023-05-19T02:46:42;102167.69;;;14.15;61.75
11987;BME280;6053;51.382;6.768;2023-05-19T02:49:12;102165.91;;;13.89;64.40
11987;BME280;6053;51.382;6.768;2023-05-19T02:51:41;102162.34;;;14.13;64.65
11987;BME280;6053;51.382;6.768;2023-05-19T02:54:09;102158.88;;;14.88;62.32
11987;BME280;6053;51.382;6.768;2023-05-19T02:56:38;102160.06;;;14.99;60.82
11987;BME280;6053;51.382;6.768;2023-05-19T02:59:07;102161.28;;;13.70;64.92
11987;BME280;6053;51.382;6.768;2023-05-19T03:01:35;102155.22;;;13.93;65.25
11987;BME280;6053;51.382;6.768;2023-05-19T03:04:06;102166.56;;;13.78;63.64
11987;BME280;6053;51.382;6.768;2023-05-19T03:06:36;102163.31;;;13.87;64.54
11987;BME280;6053;51.382;6.768;2023-05-19T03:09:05;102166.94;;;13.88;66.19
11987;BME280;6053;51.382;6.768;2023-05-19T03:11:34;102173.38;;;13.88;66.19
11987;BME280;6053;51.382;6.768;2023-05-19T03:14:03;102164.97;;;14.40;64.51
11987;BME280;6053;51.382;6.768;2023-05-19T03:16:31;102166.03;;;14.46;63.58
11987;BME280;6053;51.382;6.768;2023-05-19T03:19:00;102168.41;;;14.42;62.90
11987;BME280;6053;51.382;6.768;2023-05-19T03:21:29;102174.91;;;14.93;61.42
11987;BME280;6053;51.382;6.768;2023-05-19T03:23:59;102170.47;;;13.63;66.07
11987;BME280;6053;51.382;6.768;2023-05-19T03:26:28;102167.31;;;14.43;64.55
11987;BME280;6053;51.382;6.768;2023-05-19T03:28:57;102170.00;;;14.63;63.53
11987;BME280;6053;51.382;6.768;2023-05-19T03:31:25;102173.06;;;14.80;60.91
11987;BME280;6053;51.382;6.768;2023-05-19T03:33:54;102169.16;;;14.88;62.13
11987;BME280;6053;51.382;6.768;2023-05-19T03:36:24;102164.72;;;15.05;61.67
11987;BME280;6053;51.382;6.768;2023-05-19T03:38:59;102163.28;;;15.02;61.58
11987;BME280;6053;51.382;6.768;2023-05-19T03:41:28;102166.81;;;14.84;62.21
11987;BME280;6053;51.382;6.768;2023-05-19T03:43:56;102157.53;;;12.51;66.58
11987;BME280;6053;51.382;6.768;2023-05-19T03:46:25;102167.63;;;11.97;69.03
11987;BME280;6053;51.382;6.768;2023-05-19T03:48:54;102165.22;;;13.15;70.00
11987;BME280;6053;51.382;6.768;2023-05-19T03:51:22;102162.81;;;13.59;67.58
11987;BME280;6053;51.382;6.768;2023-05-19T03:53:51;102167.34;;;13.91;65.95
11987;BME280;6053;51.382;6.768;2023-05-19T03:56:21;102171.41;;;13.24;68.77
11987;BME280;6053;51.382;6.768;2023-05-19T03:58:52;102165.31;;;13.74;67.24
11987;BME280;6053;51.382;6.768;2023-05-19T04:01:22;102168.31;;;13.72;65.80
11987;BME280;6053;51.382;6.768;2023-05-19T04:03:50;102160.53;;;13.16;65.23
11987;BME280;6053;51.382;6.768;2023-05-19T04:06:19;102160.97;;;13.91;65.43
11987;BME280;6053;51.382;6.768;2023-05-19T04:08:48;102164.38;;;12.95;69.67
11987;BME280;6053;51.382;6.768;2023-05-19T04:11:16;102170.75;;;12.89;67.43
11987;BME280;6053;51.382;6.768;2023-05-19T04:13:47;102175.19;;;12.50;72.46
11987;BME280;6053;51.382;6.768;2023-05-19T04:16:16;102174.28;;;13.76;67.70
11987;BME280;6053;51.382;6.768;2023-05-19T04:18:44;102183.34;;;13.25;68.42
11987;BME280;6053;51.382;6.768;2023-05-19T04:21:13;102181.97;;;13.60;68.51
11987;BME280;6053;51.382;6.768;2023-05-19T04:23:42;102176.50;;;13.01;67.48
11987;BME280;6053;51.382;6.768;2023-05-19T04:26:10;102185.03;;;12.99;70.56
11987;BME280;6053;51.382;6.768;2023-05-19T04:28:41;102181.00;;;13.41;67.14
11987;BME280;6053;51.382;6.768;2023-05-19T04:31:12;102176.69;;;12.53;68.93
11987;BME280;6053;51.382;6.768;2023-05-19T04:33:41;102177.25;;;11.73;75.17
11987;BME280;6053;51.382;6.768;2023-05-19T04:36:09;102173.44;;;11.40;76.01
11987;BME280;6053;51.382;6.768;2023-05-19T04:38:40;102175.41;;;10.90;78.89
11987;BME280;6053;51.382;6.768;2023-05-19T04:41:08;102172.41;;;10.84;85.28
11987;BME280;6053;51.382;6.768;2023-05-19T04:43:38;102171.09;;;11.71;79.46
11987;BME280;6053;51.382;6.768;2023-05-19T04:46:08;102179.41;;;12.33;73.04
11987;BME280;6053;51.382;6.768;2023-05-19T04:48:41;102178.00;;;12.70;72.46
11987;BME280;6053;51.382;6.768;2023-05-19T04:51:10;102181.41;;;12.85;72.82
11987;BME280;6053;51.382;6.768;2023-05-19T04:53:40;102177.38;;;13.08;70.64
11987;BME280;6053;51.382;6.768;2023-05-19T04:56:09;102185.00;;;14.10;64.02
11987;BME280;6053;51.382;6.768;2023-05-19T04:58:41;102188.19;;;15.52;61.33
11987;BME280;6053;51.382;6.768;2023-05-19T05:01:11;102184.56;;;16.25;57.54
11987;BME280;6053;51.382;6.768;2023-05-19T05:03:43;102183.06;;;15.74;56.81
11987;BME280;6053;51.382;6.768;2023-05-19T05:06:12;102188.13;;;17.28;54.90
11987;BME280;6053;51.382;6.768;2023-05-19T05:08:41;102186.16;;;15.85;56.75
11987;BME280;6053;51.382;6.768;2023-05-19T05:11:12;102184.03;;;15.43;59.16
11987;BME280;6053;51.382;6.768;2023-05-19T05:13:41;102182.09;;;13.99;65.30
11987;BME280;6053;51.382;6.768;2023-05-19T05:16:11;102186.56;;;14.76;61.96
11987;BME280;6053;51.382;6.768;2023-05-19T05:18:42;102195.06;;;14.81;62.08
11987;BME280;6053;51.382;6.768;2023-05-19T05:21:13;102186.66;;;14.63;62.08
11987;BME280;6053;51.382;6.768;2023-05-19T05:23:42;102188.78;;;14.93;63.15
11987;BME280;6053;51.382;6.768;2023-05-19T05:26:17;102183.38;;;16.03;58.75
11987;BME280;6053;51.382;6.768;2023-05-19T05:28:47;102185.38;;;16.14;57.32
11987;BME280;6053;51.382;6.768;2023-05-19T05:31:16;102191.66;;;14.79;61.05
11987;BME280;6053;51.382;6.768;2023-05-19T05:33:46;102190.28;;;14.89;61.07
11987;BME280;6053;51.382;6.768;2023-05-19T05:36:15;102186.03;;;15.79;57.80
11987;BME280;6053;51.382;6.768;2023-05-19T05:38:43;102182.44;;;14.54;61.60
11987;BME280;6053;51.382;6.768;2023-05-19T05:41:12;102188.50;;;14.76;61.92
11987;BME280;6053;51.382;6.768;2023-05-19T05:43:40;102180.09;;;15.07;61.38
11987;BME280;6053;51.382;6.768;2023-05-19T05:46:09;102183.34;;;14.41;62.81
11987;BME280;6053;51.382;6.768;2023-05-19T05:48:38;102178.13;;;13.68;64.96
11987;BME280;6053;51.382;6.768;2023-05-19T05:51:10;102183.63;;;14.96;60.72
11987;BME280;6053;51.382;6.768;2023-05-19T05:53:40;102174.56;;;13.41;65.04
11987;BME280;6053;51.382;6.768;2023-05-19T05:56:13;102171.72;;;14.57;61.91
11987;BME280;6053;51.382;6.768;2023-05-19T05:58:41;102171.13;;;13.59;64.67
11987;BME280;6053;51.382;6.768;2023-05-19T06:01:10;102169.97;;;14.25;61.47
11987;BME280;6053;51.382;6.768;2023-05-19T06:03:41;102173.13;;;14.35;62.15
11987;BME280;6053;51.382;6.768;2023-05-19T06:06:12;102168.16;;;14.44;61.72
11987;BME280;6053;51.382;6.768;2023-05-19T06:08:41;102160.94;;;14.99;59.99
11987;BME280;6053;51.382;6.768;2023-05-19T06:11:10;102167.47;;;15.73;56.69
11987;BME280;6053;51.382;6.768;2023-05-19T06:13:39;102159.16;;;15.05;59.56
11987;BME280;6053;51.382;6.768;2023-05-19T06:16:08;102159.03;;;15.18;58.76
11987;BME280;6053;51.382;6.768;2023-05-19T06:18:37;102169.66;;;15.65;57.36
11987;BME280;6053;51.382;6.768;2023-05-19T06:21:05;102168.53;;;14.85;59.83
11987;BME280;6053;51.382;6.768;2023-05-19T06:23:38;102166.84;;;13.63;63.04
11987;BME280;6053;51.382;6.768;2023-05-19T06:26:06;102152.53;;;14.49;63.72
11987;BME280;6053;51.382;6.768;2023-05-19T06:28:35;102163.66;;;15.49;57.82
11987;BME280;6053;51.382;6.768;2023-05-19T06:31:03;102154.00;;;16.49;56.62
11987;BME280;6053;51.382;6.768;2023-05-19T06:33:32;102161.22;;;15.35;57.36
11987;BME280;6053;51.382;6.768;2023-05-19T06:36:01;102158.59;;;15.21;57.77
11987;BME280;6053;51.382;6.768;2023-05-19T06:38:29;102167.66;;;16.09;56.43
11987;BME280;6053;51.382;6.768;2023-05-19T06:41:00;102171.81;;;15.69;55.58
11987;BME280;6053;51.382;6.768;2023-05-19T06:43:28;102157.13;;;16.71;54.41
11987;BME280;6053;51.382;6.768;2023-05-19T06:45:57;102163.09;;;17.80;51.30
11987;BME280;6053;51.382;6.768;2023-05-19T06:48:25;102167.72;;;16.81;53.95
11987;BME280;6053;51.382;6.768;2023-05-19T06:50:54;102164.16;;;16.73;53.23
11987;BME280;6053;51.382;6.768;2023-05-19T06:53:23;102166.38;;;16.23;53.52
11987;BME280;6053;51.382;6.768;2023-05-19T06:55:51;102171.25;;;15.79;55.32
11987;BME280;6053;51.382;6.768;2023-05-19T06:58:28;102161.56;;;16.60;51.54
11987;BME280;6053;51.382;6.768;2023-05-19T07:00:56;102164.56;;;17.59;52.76
11987;BME280;6053;51.382;6.768;2023-05-19T07:03:25;102160.22;;;17.16;50.99
11987;BME280;6053;51.382;6.768;2023-05-19T07:05:53;102167.47;;;17.88;48.96
11987;BME280;6053;51.382;6.768;2023-05-19T07:08:22;102171.28;;;18.39;48.79
11987;BME280;6053;51.382;6.768;2023-05-19T07:10:51;102170.22;;;18.28;50.07
11987;BME280;6053;51.382;6.768;2023-05-19T07:13:19;102169.22;;;16.65;51.46
11987;BME280;6053;51.382;6.768;2023-05-19T07:15:49;102162.63;;;17.36;51.65
11987;BME280;6053;51.382;6.768;2023-05-19T07:18:18;102168.34;;;16.94;51.98
11987;BME280;6053;51.382;6.768;2023-05-19T07:20:47;102160.59;;;16.66;52.67
11987;BME280;6053;51.382;6.768;2023-05-19T07:23:15;102161.78;;;17.12;52.31
11987;BME280;6053;51.382;6.768;2023-05-19T07:25:44;102160.81;;;16.95;54.04
11987;BME280;6053;51.382;6.768;2023-05-19T07:28:13;102154.28;;;17.01;51.48
11987;BME280;6053;51.382;6.768;2023-05-19T07:30:41;102153.69;;;17.34;50.86
11987;BME280;6053;51.382;6.768;2023-05-19T07:33:11;102147.16;;;17.17;50.41
11987;BME280;6053;51.382;6.768;2023-05-19T07:35:40;102154.16;;;17.19;53.74
11987;BME280;6053;51.382;6.768;2023-05-19T07:38:09;102155.06;;;17.72;49.94
11987;BME280;6053;51.382;6.768;2023-05-19T07:40:37;102150.72;;;16.82;51.04
11987;BME280;6053;51.382;6.768;2023-05-19T07:43:06;102156.91;;;17.78;48.15
11987;BME280;6053;51.382;6.768;2023-05-19T07:45:35;102153.19;;;17.37;49.32
11987;BME280;6053;51.382;6.768;2023-05-19T07:48:03;102147.38;;;18.77;46.80
11987;BME280;6053;51.382;6.768;2023-05-19T07:50:33;102146.66;;;17.96;48.36
11987;BME280;6053;51.382;6.768;2023-05-19T07:53:03;102147.03;;;18.28;49.70
11987;BME280;6053;51.382;6.768;2023-05-19T07:55:31;102150.59;;;18.40;49.39
11987;BME280;6053;51.382;6.768;2023-05-19T07:58:00;102144.53;;;18.43;48.35
11987;BME280;6053;51.382;6.768;2023-05-19T08:00:29;102148.81;;;18.05;46.56
11987;BME280;6053;51.382;6.768;2023-05-19T08:02:58;102148.44;;;18.42;47.76
11987;BME280;6053;51.382;6.768;2023-05-19T08:05:28;102146.66;;;18.53;44.75
11987;BME280;6053;51.382;6.768;2023-05-19T08:07:58;102143.81;;;18.65;45.84
11987;BME280;6053;51.382;6.768;2023-05-19T08:10:27;102139.84;;;19.50;45.91
11987;BME280;6053;51.382;6.768;2023-05-19T08:12:56;102132.09;;;19.74;45.67
11987;BME280;6053;51.382;6.768;2023-05-19T08:15:24;102137.78;;;18.56;44.92
11987;BME280;6053;51.382;6.768;2023-05-19T08:17:53;102134.84;;;18.34;44.14
11987;BME280;6053;51.382;6.768;2023-05-19T08:20:22;102128.75;;;18.99;46.94
11987;BME280;6053;51.382;6.768;2023-05-19T08:22:50;102127.94;;;18.70;44.19
11987;BME280;6053;51.382;6.768;2023-05-19T08:25:20;102121.84;;;19.85;42.50
11987;BME280;6053;51.382;6.768;2023-05-19T08:27:49;102119.34;;;19.44;44.12
11987;BME280;6053;51.382;6.768;2023-05-19T08:30:18;102125.13;;;18.36;44.78
11987;BME280;6053;51.382;6.768;2023-05-19T08:32:47;102117.66;;;18.88;45.77
11987;BME280;6053;51.382;6.768;2023-05-19T08:35:15;102116.47;;;19.00;42.81
11987;BME280;6053;51.382;6.768;2023-05-19T08:37:44;102116.09;;;17.89;43.82
11987;BME280;6053;51.382;6.768;2023-05-19T08:40:16;102122.19;;;18.60;42.52
11987;BME280;6053;51.382;6.768;2023-05-19T08:42:46;102116.38;;;19.12;41.51
11987;BME280;6053;51.382;6.768;2023-05-19T08:45:15;102111.94;;;18.49;43.11
11987;BME280;6053;51.382;6.768;2023-05-19T08:47:45;102099.28;;;18.92;40.91
11987;BME280;6053;51.382;6.768;2023-05-19T08:50:18;102107.22;;;19.99;38.76
11987;BME280;6053;51.382;6.768;2023-05-19T08:52:52;102109.25;;;19.82;41.45
11987;BME280;6053;51.382;6.768;2023-05-19T08:55:30;102107.56;;;19.03;41.00
11987;BME280;6053;51.382;6.768;2023-05-19T08:58:03;102102.41;;;18.95;40.31
11987;BME280;6053;51.382;6.768;2023-05-19T09:00:32;102100.19;;;20.24;39.24
11987;BME280;6053;51.382;6.768;2023-05-19T09:03:02;102088.94;;;18.92;41.68
11987;BME280;6053;51.382;6.768;2023-05-19T09:05:45;102093.97;;;19.51;40.82
11987;BME280;6053;51.382;6.768;2023-05-19T09:08:13;102101.19;;;18.91;41.56
11987;BME280;6053;51.382;6.768;2023-05-19T09:10:42;102091.38;;;19.88;38.68
11987;BME280;6053;51.382;6.768;2023-05-19T09:15:50;102091.72;;;19.70;39.43
11987;BME280;6053;51.382;6.768;2023-05-19T09:18:19;102082.00;;;18.95;41.15
11987;BME280;6053;51.382;6.768;2023-05-19T09:20:48;102083.66;;;19.95;38.88
11987;BME280;6053;51.382;6.768;2023-05-19T09:23:17;102090.00;;;19.25;40.19
11987;BME280;6053;51.382;6.768;2023-05-19T09:25:47;102085.25;;;20.18;38.40
11987;BME280;6053;51.382;6.768;2023-05-19T09:28:23;102080.88;;;20.28;38.52
11987;BME280;6053;51.382;6.768;2023-05-19T09:31:00;102077.69;;;21.63;37.75
11987;BME280;6053;51.382;6.768;2023-05-19T09:33:31;102083.59;;;20.17;38.54
11987;BME280;6053;51.382;6.768;2023-05-19T09:36:00;102073.22;;;19.91;38.91
11987;BME280;6053;51.382;6.768;2023-05-19T09:38:29;102071.69;;;20.97;36.77
11987;BME280;6053;51.382;6.768;2023-05-19T09:40:59;102068.47;;;20.78;38.56
11987;BME280;6053;51.382;6.768;2023-05-19T09:43:28;102067.59;;;19.91;38.10
11987;BME280;6053;51.382;6.768;2023-05-19T09:46:02;102075.22;;;20.49;36.93
11987;BME280;6053;51.382;6.768;2023-05-19T09:48:31;102056.78;;;20.91;37.84
11987;BME280;6053;51.382;6.768;2023-05-19T09:51:01;102059.66;;;20.64;36.27
11987;BME280;6053;51.382;6.768;2023-05-19T09:53:30;102063.91;;;21.61;39.19
11987;BME280;6053;51.382;6.768;2023-05-19T09:56:00;102060.53;;;20.10;37.43
11987;BME280;6053;51.382;6.768;2023-05-19T09:58:32;102059.41;;;21.03;37.48
11987;BME280;6053;51.382;6.768;2023-05-19T10:01:04;102039.81;;;20.70;36.37
11987;BME280;6053;51.382;6.768;2023-05-19T10:03:34;102043.22;;;20.13;36.46
11987;BME280;6053;51.382;6.768;2023-05-19T10:06:03;102045.34;;;19.13;37.28
11987;BME280;6053;51.382;6.768;2023-05-19T10:08:33;102042.88;;;20.42;40.15
11987;BME280;6053;51.382;6.768;2023-05-19T10:11:03;102047.13;;;21.19;36.08
11987;BME280;6053;51.382;6.768;2023-05-19T10:13:34;102047.09;;;20.39;36.80
11987;BME280;6053;51.382;6.768;2023-05-19T10:16:07;102055.44;;;19.58;36.76
11987;BME280;6053;51.382;6.768;2023-05-19T10:18:37;102055.13;;;20.31;34.90
11987;BME280;6053;51.382;6.768;2023-05-19T10:21:07;102042.06;;;20.74;35.53
11987;BME280;6053;51.382;6.768;2023-05-19T10:23:36;102046.19;;;21.51;34.91
11987;BME280;6053;51.382;6.768;2023-05-19T10:26:06;102046.50;;;20.37;36.97
11987;BME280;6053;51.382;6.768;2023-05-19T10:28:38;102041.75;;;20.38;34.48
11987;BME280;6053;51.382;6.768;2023-05-19T10:31:12;102043.81;;;20.80;34.84
11987;BME280;6053;51.382;6.768;2023-05-19T10:33:58;102039.41;;;20.57;34.93
11987;BME280;6053;51.382;6.768;2023-05-19T10:36:38;102037.69;;;20.23;34.82
11987;BME280;6053;51.382;6.768;2023-05-19T10:39:15;102036.75;;;20.13;35.57
11987;BME280;6053;51.382;6.768;2023-05-19T10:41:52;102049.75;;;19.97;37.63
11987;BME280;6053;51.382;6.768;2023-05-19T10:44:34;102033.47;;;20.21;34.47
11987;BME280;6053;51.382;6.768;2023-05-19T10:52:26;102035.56;;;20.68;34.83
11987;BME280;6053;51.382;6.768;2023-05-19T10:55:00;102029.50;;;21.97;33.42
11987;BME280;6053;51.382;6.768;2023-05-19T10:57:29;102030.31;;;21.29;35.26
11987;BME280;6053;51.382;6.768;2023-05-19T11:00:01;102032.16;;;20.61;36.08
11987;BME280;6053;51.382;6.768;2023-05-19T11:02:39;102024.59;;;20.61;34.65
11987;BME280;6053;51.382;6.768;2023-05-19T11:05:09;102016.31;;;20.12;35.69
11987;BME280;6053;51.382;6.768;2023-05-19T11:07:42;102013.47;;;21.24;34.53
11987;BME280;6053;51.382;6.768;2023-05-19T11:10:12;102019.44;;;21.33;33.49
11987;BME280;6053;51.382;6.768;2023-05-19T11:12:42;102006.38;;;21.79;33.62
11987;BME280;6053;51.382;6.768;2023-05-19T11:15:13;102017.03;;;21.04;34.44
11987;BME280;6053;51.382;6.768;2023-05-19T11:17:48;102013.06;;;21.00;36.38
11987;BME280;6053;51.382;6.768;2023-05-19T11:23:04;102013.63;;;19.51;35.07
11987;BME280;6053;51.382;6.768;2023-05-19T11:25:44;102007.56;;;20.41;34.99
11987;BME280;6053;51.382;6.768;2023-05-19T11:28:16;102014.16;;;21.41;34.00
11987;BME280;6053;51.382;6.768;2023-05-19T11:30:47;102011.16;;;20.63;34.13
11987;BME280;6053;51.382;6.768;2023-05-19T11:33:19;102017.38;;;20.70;34.38
11987;BME280;6053;51.382;6.768;2023-05-19T11:35:54;101999.66;;;20.65;34.58
11987;BME280;6053;51.382;6.768;2023-05-19T11:38:26;102012.06;;;20.42;34.00
11987;BME280;6053;51.382;6.768;2023-05-19T11:40:56;102006.69;;;19.76;34.92
11987;BME280;6053;51.382;6.768;2023-05-19T11:43:25;102004.31;;;19.90;35.89
11987;BME280;6053;51.382;6.768;2023-05-19T11:45:53;101993.19;;;20.27;34.95
11987;BME280;6053;51.382;6.768;2023-05-19T11:48:24;101997.56;;;20.18;35.27
11987;BME280;6053;51.382;6.768;2023-05-19T11:50:53;101996.84;;;19.51;36.37
11987;BME280;6053;51.382;6.768;2023-05-19T11:53:24;101989.50;;;20.54;35.41
11987;BME280;6053;51.382;6.768;2023-05-19T11:56:02;101994.47;;;20.14;35.56
11987;BME280;6053;51.382;6.768;2023-05-19T11:58:31;101997.66;;;20.28;34.79
11987;BME280;6053;51.382;6.768;2023-05-19T12:01:03;101991.19;;;20.55;35.92
11987;BME280;6053;51.382;6.768;2023-05-19T12:03:32;101994.22;;;20.95;33.66
11987;BME280;6053;51.382;6.768;2023-05-19T12:06:03;101982.63;;;20.39;34.88
11987;BME280;6053;51.382;6.768;2023-05-19T12:08:34;101979.97;;;20.22;36.46
11987;BME280;6053;51.382;6.768;2023-05-19T12:11:04;101975.78;;;20.57;35.01
11987;BME280;6053;51.382;6.768;2023-05-19T12:13:34;101973.88;;;20.63;34.89
11987;BME280;6053;51.382;6.768;2023-05-19T12:16:03;101967.34;;;21.00;34.63
11987;BME280;6053;51.382;6.768;2023-05-19T12:18:36;101964.44;;;21.37;35.04
11987;BME280;6053;51.382;6.768;2023-05-19T12:21:05;101961.00;;;20.72;35.09
11987;BME280;6053;51.382;6.768;2023-05-19T12:23:35;101963.19;;;20.60;35.29
11987;BME280;6053;51.382;6.768;2023-05-19T12:26:04;101966.38;;;20.79;34.84
11987;BME280;6053;51.382;6.768;2023-05-19T12:28:33;101969.47;;;20.45;35.12
11987;BME280;6053;51.382;6.768;2023-05-19T12:31:02;101966.16;;;20.90;36.33
11987;BME280;6053;51.382;6.768;2023-05-19T12:33:32;101956.53;;;20.71;34.88
11987;BME280;6053;51.382;6.768;2023-05-19T12:36:02;101960.09;;;20.61;35.39
11987;BME280;6053;51.382;6.768;2023-05-19T12:38:31;101958.13;;;20.24;34.54
11987;BME280;6053;51.382;6.768;2023-05-19T12:41:05;101951.38;;;21.05;34.47
11987;BME280;6053;51.382;6.768;2023-05-19T12:43:33;101946.50;;;20.43;35.60
11987;BME280;6053;51.382;6.768;2023-05-19T12:46:09;101957.19;;;20.14;35.70
11987;BME280;6053;51.382;6.768;2023-05-19T12:48:42;101940.53;;;20.34;36.03
11987;BME280;6053;51.382;6.768;2023-05-19T12:51:15;101948.28;;;20.22;36.17
11987;BME280;6053;51.382;6.768;2023-05-19T12:53:45;101949.06;;;20.12;37.36
11987;BME280;6053;51.382;6.768;2023-05-19T12:56:15;101932.19;;;20.39;36.38
11987;BME280;6053;51.382;6.768;2023-05-19T12:58:44;101926.84;;;21.48;36.16
11987;BME280;6053;51.382;6.768;2023-05-19T13:01:17;101925.47;;;21.61;34.64
11987;BME280;6053;51.382;6.768;2023-05-19T13:03:46;101922.38;;;21.57;34.56
11987;BME280;6053;51.382;6.768;2023-05-19T13:06:15;101936.03;;;21.23;35.92
11987;BME280;6053;51.382;6.768;2023-05-19T13:08:46;101931.72;;;21.00;35.72
11987;BME280;6053;51.382;6.768;2023-05-19T13:11:16;101932.66;;;21.26;34.66
11987;BME280;6053;51.382;6.768;2023-05-19T13:13:45;101932.19;;;20.39;35.15
11987;BME280;6053;51.382;6.768;2023-05-19T13:16:13;101923.53;;;20.46;35.45
11987;BME280;6053;51.382;6.768;2023-05-19T13:18:42;101933.50;;;20.32;35.89
11987;BME280;6053;51.382;6.768;2023-05-19T13:21:11;101921.00;;;20.44;36.57
11987;BME280;6053;51.382;6.768;2023-05-19T13:23:39;101916.81;;;20.94;35.43
11987;BME280;6053;51.382;6.768;2023-05-19T13:26:08;101913.97;;;20.79;35.36
11987;BME280;6053;51.382;6.768;2023-05-19T13:28:40;101909.75;;;21.50;36.42
11987;BME280;6053;51.382;6.768;2023-05-19T13:31:09;101913.09;;;21.41;35.83
11987;BME280;6053;51.382;6.768;2023-05-19T13:33:38;101920.16;;;20.44;35.73